Time;durP1;ratioP1;P1;durP2;ratioP2;P2;SDS_P1;SDS_P2;PMS_P1;PMS_P2;Temp;Humidity;BMP_temperature;BMP_pressure;BME280_temperature;BME280_humidity;BME280_pressure;Samples;Min_cycle;Max_cycle;Signal;HPM_P1;HPM_P2
2021/05/15 00:00:11;;;;;;;9.07;5.47;;;9.90;99.90;;;;;;5017414;28;20393;-69
2021/05/15 00:02:39;;;;;;;7.78;5.43;;;10.00;99.90;;;;;;5018233;28;20049;-68
2021/05/15 00:05:08;;;;;;;9.65;5.80;;;10.00;99.90;;;;;;5017708;28;20029;-68
2021/05/15 00:07:36;;;;;;;8.98;5.43;;;10.10;99.90;;;;;;5017947;28;20030;-68
2021/05/15 00:10:05;;;;;;;7.35;5.05;;;10.10;99.90;;;;;;5018223;28;20026;-69
2021/05/15 00:12:33;;;;;;;8.82;5.75;;;10.10;99.90;;;;;;5017630;28;20049;-68
2021/05/15 00:15:03;;;;;;;10.85;5.38;;;10.10;99.90;;;;;;5018273;28;20108;-69
2021/05/15 00:17:31;;;;;;;8.30;5.15;;;10.10;99.90;;;;;;5018431;28;20030;-69
2021/05/15 00:19:58;;;;;;;7.00;4.72;;;10.10;99.90;;;;;;5018853;28;20052;-69
2021/05/15 00:22:27;;;;;;;8.45;5.95;;;10.00;99.90;;;;;;5036323;28;20046;-68
2021/05/15 00:24:54;;;;;;;10.90;6.00;;;10.00;99.90;;;;;;5019033;28;20068;-69
2021/05/15 00:27:22;;;;;;;10.43;5.57;;;10.00;99.90;;;;;;5036577;28;20028;-69
2021/05/15 00:29:49;;;;;;;9.20;5.38;;;10.00;99.90;;;;;;5036325;28;20036;-69
2021/05/15 00:32:17;;;;;;;8.50;5.00;;;10.00;99.90;;;;;;5036219;28;20033;-69
2021/05/15 00:34:45;;;;;;;8.55;5.22;;;10.00;99.90;;;;;;5036649;28;20044;-69
2021/05/15 00:37:12;;;;;;;10.88;4.65;;;10.00;99.90;;;;;;5019539;28;20428;-68
2021/05/15 00:39:40;;;;;;;7.47;5.07;;;9.90;99.90;;;;;;5037232;28;20028;-69
2021/05/15 00:42:08;;;;;;;8.05;5.75;;;9.90;99.90;;;;;;5037584;28;20029;-68
2021/05/15 00:44:46;;;;;;;10.82;6.10;;;9.90;99.90;;;;;;5037192;28;20484;-69
2021/05/15 00:47:19;;;;;;;8.25;5.60;;;9.90;99.90;;;;;;5037266;28;20036;-69
2021/05/15 00:49:49;;;;;;;8.63;5.97;;;9.80;99.90;;;;;;5037664;28;20314;-69
2021/05/15 00:52:18;;;;;;;7.55;5.53;;;9.80;99.90;;;;;;5036761;28;20049;-69
2021/05/15 00:54:47;;;;;;;11.27;6.47;;;9.70;99.90;;;;;;5036281;28;20029;-69
2021/05/15 00:57:14;;;;;;;9.00;5.22;;;9.60;99.90;;;;;;5035990;28;20109;-68
2021/05/15 00:59:41;;;;;;;8.00;6.10;;;9.50;99.90;;;;;;5036107;28;20101;-69
2021/05/15 01:02:13;;;;;;;9.70;5.72;;;9.40;99.90;;;;;;5036451;28;20079;-69
2021/05/15 01:04:41;;;;;;;10.57;6.20;;;9.30;99.90;;;;;;5036716;28;20109;-69
2021/05/15 01:07:10;;;;;;;9.35;6.50;;;9.20;99.90;;;;;;5036508;28;20095;-69
2021/05/15 01:09:38;;;;;;;8.35;5.85;;;9.00;99.90;;;;;;5036223;28;20116;-69
2021/05/15 01:12:08;;;;;;;12.18;7.18;;;8.90;99.90;;;;;;5036850;28;20326;-68
2021/05/15 01:14:39;;;;;;;13.38;6.78;;;8.80;99.90;;;;;;5019450;28;20112;-68
2021/05/15 01:17:11;;;;;;;12.70;6.95;;;8.80;99.90;;;;;;5036480;28;20033;-68
2021/05/15 01:19:39;;;;;;;16.80;8.10;;;8.70;99.90;;;;;;5036607;28;20128;-68
2021/05/15 01:22:15;;;;;;;13.82;6.78;;;8.60;99.90;;;;;;5037245;28;20017;-68
2021/05/15 01:24:44;;;;;;;8.60;5.80;;;8.60;99.90;;;;;;5038754;28;20026;-68
2021/05/15 01:27:14;;;;;;;10.90;6.32;;;8.50;99.90;;;;;;5039515;28;20025;-68
2021/05/15 01:29:43;;;;;;;10.27;6.30;;;8.30;99.90;;;;;;5039385;28;20045;-68
2021/05/15 01:32:11;;;;;;;12.90;7.10;;;8.20;99.90;;;;;;5039162;28;20025;-68
2021/05/15 01:34:41;;;;;;;12.57;7.30;;;8.00;99.90;;;;;;5022108;28;20077;-68
2021/05/15 01:37:08;;;;;;;13.90;8.13;;;7.90;99.90;;;;;;5039590;28;20021;-68
2021/05/15 01:39:36;;;;;;;21.02;9.07;;;7.80;99.90;;;;;;5039187;28;20125;-69
2021/05/15 01:42:04;;;;;;;22.85;10.05;;;7.70;99.90;;;;;;5039043;28;20143;-68
2021/05/15 01:44:33;;;;;;;12.45;7.50;;;7.70;99.90;;;;;;5039918;28;20026;-68
2021/05/15 01:47:00;;;;;;;11.60;7.75;;;7.60;99.90;;;;;;5040126;28;20428;-68
2021/05/15 01:49:28;;;;;;;15.43;8.60;;;7.60;99.90;;;;;;5039880;28;20354;-68
2021/05/15 01:51:56;;;;;;;12.73;7.97;;;7.60;99.90;;;;;;5039860;28;20022;-68
2021/05/15 01:54:23;;;;;;;13.70;8.00;;;7.60;99.90;;;;;;5039951;28;20057;-68
2021/05/15 01:56:51;;;;;;;14.57;8.25;;;7.60;99.90;;;;;;5039697;28;20028;-68
2021/05/15 01:59:18;;;;;;;12.68;7.55;;;7.50;99.90;;;;;;5022112;28;20496;-69
2021/05/15 02:01:46;;;;;;;12.77;7.35;;;7.50;99.90;;;;;;5039912;28;20420;-69
2021/05/15 02:04:13;;;;;;;10.65;6.80;;;7.40;99.90;;;;;;5038771;28;20051;-69
2021/05/15 02:06:42;;;;;;;11.57;7.10;;;7.30;99.90;;;;;;5038608;28;20079;-69
2021/05/15 02:09:09;;;;;;;9.50;6.70;;;7.20;99.90;;;;;;5039193;28;20044;-69
2021/05/15 02:11:38;;;;;;;11.27;7.35;;;7.10;99.90;;;;;;5039122;28;20101;-68
2021/05/15 02:14:06;;;;;;;14.98;7.43;;;7.10;99.90;;;;;;5020869;28;20036;-68
2021/05/15 02:16:34;;;;;;;16.98;8.27;;;7.00;99.90;;;;;;5038624;28;20022;-68
2021/05/15 02:19:02;;;;;;;11.93;7.50;;;6.90;99.90;;;;;;5038242;28;20055;-68
2021/05/15 02:21:29;;;;;;;13.23;7.88;;;6.90;99.90;;;;;;5039097;28;20294;-68
2021/05/15 02:23:56;;;;;;;12.35;8.18;;;6.90;99.90;;;;;;5039268;28;20025;-68
2021/05/15 02:26:24;;;;;;;13.80;8.27;;;6.80;99.90;;;;;;5021551;28;20125;-68
2021/05/15 02:28:51;;;;;;;14.85;8.90;;;6.80;99.90;;;;;;5039177;28;20025;-69
2021/05/15 02:31:19;;;;;;;15.63;8.25;;;6.70;99.90;;;;;;5021497;28;20025;-68
2021/05/15 02:33:47;;;;;;;23.35;11.07;;;6.70;99.90;;;;;;5039483;28;20071;-68
2021/05/15 02:36:14;;;;;;;14.48;9.15;;;6.70;99.90;;;;;;5020346;28;20029;-69
2021/05/15 02:38:42;;;;;;;14.43;8.50;;;6.70;99.90;;;;;;5038769;28;20013;-69
2021/05/15 02:41:09;;;;;;;13.52;7.70;;;6.60;99.90;;;;;;5038286;28;20029;-69
2021/05/15 02:43:37;;;;;;;12.65;8.02;;;6.60;99.90;;;;;;5038006;28;20024;-69
2021/05/15 02:46:04;;;;;;;12.10;7.72;;;6.50;99.90;;;;;;5037928;28;20071;-69
2021/05/15 02:48:31;;;;;;;16.85;8.52;;;6.50;99.90;;;;;;5038113;28;20017;-69
2021/05/15 02:50:59;;;;;;;13.88;8.35;;;6.40;99.90;;;;;;5020137;28;20037;-69
2021/05/15 02:53:27;;;;;;;15.07;8.38;;;6.40;99.90;;;;;;5037804;28;20052;-69
2021/05/15 02:55:55;;;;;;;15.77;8.70;;;6.30;99.90;;;;;;5020367;28;20033;-69
2021/05/15 02:58:23;;;;;;;15.60;8.93;;;6.30;99.90;;;;;;5038575;28;20465;-69
2021/05/15 03:00:51;;;;;;;16.65;8.50;;;6.20;99.90;;;;;;5039276;28;20033;-69
2021/05/15 03:03:20;;;;;;;14.27;9.30;;;6.20;99.90;;;;;;5038395;28;20025;-69
2021/05/15 03:05:48;;;;;;;18.83;9.57;;;6.20;99.90;;;;;;5039001;28;20025;-69
2021/05/15 03:08:15;;;;;;;15.85;9.65;;;6.20;99.90;;;;;;5038896;28;20034;-69
2021/05/15 03:10:43;;;;;;;24.60;10.15;;;6.20;99.90;;;;;;5020899;28;20048;-69
2021/05/15 03:13:11;;;;;;;16.65;9.82;;;6.20;99.90;;;;;;5038312;28;20426;-69
2021/05/15 03:15:38;;;;;;;18.00;10.30;;;6.20;99.90;;;;;;5037352;28;20052;-69
2021/05/15 03:18:06;;;;;;;21.52;8.85;;;6.30;99.90;;;;;;5016021;28;20049;-69
2021/05/15 03:20:34;;;;;;;13.70;8.63;;;6.30;99.90;;;;;;5017722;28;20029;-69
2021/05/15 03:23:02;;;;;;;14.18;8.55;;;6.30;99.90;;;;;;5018046;28;20029;-69
2021/05/15 03:25:30;;;;;;;12.23;7.32;;;6.30;99.90;;;;;;5017456;28;20028;-69
2021/05/15 03:27:58;;;;;;;11.25;7.47;;;6.30;99.90;;;;;;5016286;28;20319;-69
2021/05/15 03:30:25;;;;;;;14.45;8.15;;;6.30;99.90;;;;;;5017672;28;20022;-69
2021/05/15 03:32:53;;;;;;;12.98;8.25;;;6.20;99.90;;;;;;5018681;28;20477;-69
2021/05/15 03:35:21;;;;;;;12.25;7.82;;;6.20;99.90;;;;;;5018675;28;20037;-69
2021/05/15 03:37:48;;;;;;;15.48;8.23;;;6.20;99.90;;;;;;5018094;28;20026;-69
2021/05/15 03:40:16;;;;;;;14.13;8.65;;;6.10;99.90;;;;;;5018113;28;20055;-69
2021/05/15 03:42:43;;;;;;;14.75;9.10;;;6.10;99.90;;;;;;5018616;28;20021;-69
2021/05/15 03:45:11;;;;;;;15.23;8.10;;;6.20;99.90;;;;;;5018425;28;20088;-69
2021/05/15 03:47:39;;;;;;;15.75;8.73;;;6.20;99.90;;;;;;5016772;28;20029;-69
2021/05/15 03:50:07;;;;;;;14.02;8.63;;;6.20;99.90;;;;;;5017025;28;20414;-69
2021/05/15 03:52:35;;;;;;;15.70;7.90;;;6.30;99.90;;;;;;5015959;28;20026;-69
2021/05/15 03:55:03;;;;;;;15.98;8.35;;;6.30;99.90;;;;;;5017141;28;20048;-69
2021/05/15 03:57:30;;;;;;;14.30;8.95;;;6.40;99.90;;;;;;5015761;28;20057;-69
2021/05/15 03:59:58;;;;;;;16.58;8.73;;;6.40;99.90;;;;;;5017242;28;20318;-69
2021/05/15 04:02:26;;;;;;;16.50;10.13;;;6.50;99.90;;;;;;5017535;28;20429;-69
2021/05/15 04:04:56;;;;;;;18.75;9.40;;;6.60;99.90;;;;;;5018487;28;20018;-69
2021/05/15 04:07:24;;;;;;;15.32;9.90;;;6.60;99.90;;;;;;5017673;28;20326;-69
2021/05/15 04:09:51;;;;;;;15.13;9.07;;;6.70;99.90;;;;;;5016612;28;20025;-68
2021/05/15 04:12:18;;;;;;;14.38;8.90;;;6.80;99.90;;;;;;5018098;28;20073;-69
2021/05/15 04:14:50;;;;;;;17.38;9.20;;;6.80;99.90;;;;;;5017772;28;20022;-69
2021/05/15 04:17:28;;;;;;;16.00;9.20;;;6.90;99.90;;;;;;5016044;28;20112;-69
2021/05/15 04:19:58;;;;;;;16.38;8.88;;;7.00;99.90;;;;;;4999221;28;20045;-69
2021/05/15 04:22:26;;;;;;;14.15;9.10;;;7.00;99.90;;;;;;5016569;28;20074;-69
2021/05/15 04:24:54;;;;;;;15.27;9.30;;;7.10;99.90;;;;;;5017326;28;20395;-69
2021/05/15 04:27:22;;;;;;;16.20;9.10;;;7.20;99.90;;;;;;4999072;28;20120;-69
2021/05/15 04:29:50;;;;;;;14.73;8.90;;;7.20;99.90;;;;;;5017135;28;20022;-69
2021/05/15 04:32:18;;;;;;;15.85;8.52;;;7.30;99.90;;;;;;4999009;28;20034;-69
2021/05/15 04:34:45;;;;;;;15.88;9.45;;;7.30;99.90;;;;;;5017424;28;20205;-69
2021/05/15 04:37:13;;;;;;;15.50;9.30;;;7.30;99.90;;;;;;5017209;28;20022;-69
2021/05/15 04:39:41;;;;;;;11.98;7.75;;;7.40;99.90;;;;;;5017360;28;20022;-69
2021/05/15 04:42:09;;;;;;;12.00;8.07;;;7.40;99.90;;;;;;5017375;28;20101;-69
2021/05/15 04:44:37;;;;;;;13.77;8.07;;;7.40;99.90;;;;;;5016501;28;20334;-69
2021/05/15 04:47:05;;;;;;;15.90;8.95;;;7.50;99.90;;;;;;5017298;28;20414;-69
2021/05/15 04:49:33;;;;;;;12.82;8.15;;;7.50;99.90;;;;;;5017513;28;20105;-69
2021/05/15 04:52:01;;;;;;;13.35;9.07;;;7.60;99.90;;;;;;5016976;28;20022;-69
2021/05/15 04:54:28;;;;;;;13.05;8.88;;;7.70;99.90;;;;;;5016361;28;20037;-69
2021/05/15 04:56:56;;;;;;;17.20;10.23;;;7.80;99.90;;;;;;5016468;28;20368;-68
2021/05/15 04:59:23;;;;;;;14.93;9.93;;;8.00;99.90;;;;;;5017714;28;20022;-69
2021/05/15 05:01:51;;;;;;;15.65;9.25;;;8.10;99.90;;;;;;5020570;28;20029;-70
2021/05/15 05:04:18;;;;;;;15.07;9.57;;;8.20;99.90;;;;;;5002336;28;20022;-70
2021/05/15 05:06:45;;;;;;;14.38;8.98;;;8.40;99.90;;;;;;5020744;28;20369;-70
2021/05/15 05:09:13;;;;;;;15.27;9.60;;;8.50;99.90;;;;;;5021026;28;20029;-70
2021/05/15 05:11:41;;;;;;;15.15;9.20;;;8.60;99.90;;;;;;5020811;28;20057;-67
2021/05/15 05:14:08;;;;;;;13.20;9.50;;;8.70;99.90;;;;;;5003385;28;20037;-70
2021/05/15 05:16:36;;;;;;;14.68;9.50;;;8.80;99.90;;;;;;4999768;28;20052;-71
2021/05/15 05:19:03;;;;;;;12.50;8.73;;;8.90;99.90;;;;;;5034194;28;20330;-71
2021/05/15 05:21:31;;;;;;;17.45;10.00;;;9.00;99.90;;;;;;5040889;28;20018;-70
2021/05/15 05:23:59;;;;;;;13.32;9.23;;;9.10;99.90;;;;;;5039547;28;20029;-74
2021/05/15 05:26:28;;;;;;;16.48;10.23;;;9.20;99.90;;;;;;5039441;28;20425;-72
2021/05/15 05:28:58;;;;;;;12.75;8.65;;;9.40;99.90;;;;;;5021860;28;20310;-72
2021/05/15 05:31:27;;;;;;;13.38;9.10;;;9.50;99.90;;;;;;5039243;28;20030;-72
2021/05/15 05:33:54;;;;;;;11.15;8.07;;;9.60;99.90;;;;;;5039286;28;20028;-73
2021/05/15 05:36:22;;;;;;;12.30;7.75;;;9.80;99.90;;;;;;5039094;28;20033;-71
2021/05/15 05:38:50;;;;;;;16.50;8.23;;;9.90;99.90;;;;;;5039311;28;20410;-72
2021/05/15 05:41:20;;;;;;;11.07;7.18;;;9.90;99.90;;;;;;5039677;28;20049;-70
2021/05/15 05:43:50;;;;;;;10.27;6.97;;;10.10;99.90;;;;;;5040323;28;20141;-86
2021/05/15 05:46:18;;;;;;;11.75;7.05;;;10.20;99.90;;;;;;5022346;28;20021;-72
2021/05/15 05:48:47;;;;;;;8.98;6.13;;;10.20;99.90;;;;;;5040556;28;20109;-71
2021/05/15 05:51:16;;;;;;;9.05;5.82;;;10.30;99.90;;;;;;5039860;28;20108;-71
2021/05/15 05:53:43;;;;;;;10.32;5.97;;;10.40;99.90;;;;;;5040096;28;20074;-72
2021/05/15 05:56:11;;;;;;;6.80;5.10;;;10.50;99.90;;;;;;5039419;28;20433;-70
2021/05/15 05:58:40;;;;;;;8.65;6.18;;;10.70;99.90;;;;;;5039165;28;20354;-71
2021/05/15 06:01:08;;;;;;;8.32;5.78;;;10.80;99.90;;;;;;5038698;28;20040;-71
2021/05/15 06:03:36;;;;;;;9.52;5.35;;;10.90;99.90;;;;;;5021245;28;20079;-72
2021/05/15 06:06:04;;;;;;;5.32;3.90;;;11.00;99.90;;;;;;5039076;28;20022;-73
2021/05/15 06:08:31;;;;;;;6.07;3.78;;;11.20;99.90;;;;;;5020919;28;20029;-72
2021/05/15 06:10:59;;;;;;;5.97;3.30;;;11.30;99.90;;;;;;5038448;28;20026;-70
2021/05/15 06:13:27;;;;;;;4.95;3.00;;;11.40;99.90;;;;;;5038597;28;20018;-71
2021/05/15 06:15:54;;;;;;;3.75;2.50;;;11.50;99.90;;;;;;5040057;28;20466;-71
2021/05/15 06:18:21;;;;;;;4.38;2.55;;;11.60;99.90;;;;;;5018152;28;20062;-70
2021/05/15 06:20:49;;;;;;;4.22;2.72;;;11.70;99.90;;;;;;5019418;28;20512;-72
2021/05/15 06:23:17;;;;;;;5.53;2.70;;;11.80;99.90;;;;;;5019338;28;20026;-72
2021/05/15 06:25:44;;;;;;;6.47;2.35;;;11.80;99.90;;;;;;5019489;28;20021;-72
2021/05/15 06:28:13;;;;;;;5.40;2.95;;;11.90;99.90;;;;;;5018411;28;20033;-72
2021/05/15 06:30:41;;;;;;;4.47;2.40;;;12.00;99.90;;;;;;5018714;28;20026;-72
2021/05/15 06:33:08;;;;;;;6.82;2.72;;;12.10;99.90;;;;;;5018493;28;20487;-72
2021/05/15 06:35:37;;;;;;;4.40;3.25;;;12.10;99.90;;;;;;5019029;28;20407;-74
2021/05/15 06:38:06;;;;;;;5.43;3.40;;;12.10;99.90;;;;;;5017391;28;20029;-73
2021/05/15 06:40:34;;;;;;;4.20;3.03;;;12.20;99.90;;;;;;5018360;28;20018;-72
2021/05/15 06:43:02;;;;;;;4.65;3.10;;;12.30;99.90;;;;;;5017140;28;20049;-72
2021/05/15 06:45:30;;;;;;;5.72;3.80;;;12.40;99.90;;;;;;5018128;28;20488;-73
2021/05/15 06:47:58;;;;;;;4.47;3.13;;;12.50;99.90;;;;;;5018829;28;20029;-72
2021/05/15 06:50:26;;;;;;;5.07;3.17;;;12.50;99.90;;;;;;5018990;28;20108;-72
2021/05/15 06:52:53;;;;;;;6.63;2.58;;;12.70;99.90;;;;;;5018929;28;20030;-72
2021/05/15 06:55:23;;;;;;;4.03;2.90;;;12.80;99.90;;;;;;5017703;28;20022;-72
2021/05/15 06:57:51;;;;;;;3.70;2.20;;;12.90;99.90;;;;;;5017580;28;20445;-72
2021/05/15 07:00:19;;;;;;;4.68;3.10;;;13.10;99.90;;;;;;5018894;28;20018;-72
2021/05/15 07:02:47;;;;;;;2.72;1.50;;;13.30;99.90;;;;;;5018638;28;20022;-72
2021/05/15 07:05:17;;;;;;;2.50;1.63;;;13.50;99.90;;;;;;5018177;28;20022;-72
2021/05/15 07:07:44;;;;;;;2.50;1.70;;;13.70;99.90;;;;;;5017816;28;20026;-72
2021/05/15 07:10:13;;;;;;;3.00;1.10;;;13.90;99.90;;;;;;5017878;28;20477;-73
2021/05/15 07:12:42;;;;;;;2.22;1.48;;;14.00;99.90;;;;;;5018115;28;20109;-72
2021/05/15 07:15:10;;;;;;;3.08;1.40;;;14.00;99.90;;;;;;5016588;28;20426;-72
2021/05/15 07:17:38;;;;;;;2.40;1.30;;;14.10;99.90;;;;;;5018335;28;20030;-72
2021/05/15 07:20:07;;;;;;;2.53;1.23;;;14.10;99.90;;;;;;5037853;28;20022;-72
2021/05/15 07:22:34;;;;;;;3.60;1.05;;;14.20;99.90;;;;;;5037584;28;20101;-72
2021/05/15 07:25:02;;;;;;;2.33;1.30;;;14.20;99.90;;;;;;5038098;28;20018;-72
2021/05/15 07:27:30;;;;;;;2.17;0.80;;;14.40;99.90;;;;;;5038556;28;20025;-71
2021/05/15 07:29:57;;;;;;;2.20;1.00;;;14.40;99.90;;;;;;5038508;28;20053;-71
2021/05/15 07:32:24;;;;;;;2.80;0.88;;;14.40;99.90;;;;;;5020488;28;20029;-72
2021/05/15 07:34:52;;;;;;;6.95;1.20;;;14.50;99.90;;;;;;5020386;28;20048;-72
2021/05/15 07:37:20;;;;;;;1.85;0.98;;;14.60;99.90;;;;;;5019346;28;20029;-72
2021/05/15 07:39:48;;;;;;;2.13;0.85;;;14.60;99.90;;;;;;5019570;28;20024;-72
2021/05/15 07:42:16;;;;;;;1.35;0.82;;;14.70;99.90;;;;;;5037479;28;20043;-72
2021/05/15 07:44:44;;;;;;;3.13;1.00;;;14.80;99.90;;;;;;5019534;28;20021;-72
2021/05/15 07:47:12;;;;;;;4.95;1.13;;;14.90;99.90;;;;;;5037259;28;20025;-72
2021/05/15 07:49:40;;;;;;;1.92;1.10;;;15.00;99.90;;;;;;5036889;28;20075;-72
2021/05/15 07:52:07;;;;;;;1.88;0.98;;;15.10;99.90;;;;;;5036839;28;20026;-73
2021/05/15 07:54:35;;;;;;;4.07;0.90;;;15.20;99.80;;;;;;5037904;28;20026;-72
2021/05/15 07:57:02;;;;;;;3.85;1.60;;;15.20;99.70;;;;;;5037561;28;20317;-72
2021/05/15 07:59:30;;;;;;;2.58;1.20;;;15.20;99.40;;;;;;5037900;28;20295;-72
2021/05/15 08:01:58;;;;;;;2.13;1.25;;;15.10;99.30;;;;;;5037934;28;20022;-72
2021/05/15 08:04:26;;;;;;;3.60;1.15;;;15.10;99.40;;;;;;5038012;28;20028;-72
2021/05/15 08:06:54;;;;;;;2.95;1.10;;;15.10;99.40;;;;;;5037551;28;20025;-73
2021/05/15 08:09:22;;;;;;;2.40;1.10;;;15.10;99.10;;;;;;5037538;28;20115;-72
2021/05/15 08:11:50;;;;;;;2.20;1.27;;;15.10;98.80;;;;;;5037109;28;20036;-73
2021/05/15 08:14:18;;;;;;;1.83;1.17;;;15.20;98.70;;;;;;5036699;28;20033;-72
2021/05/15 08:16:46;;;;;;;2.88;1.10;;;15.20;98.90;;;;;;5036885;28;20318;-72
2021/05/15 08:19:13;;;;;;;1.88;0.90;;;15.30;99.00;;;;;;5036184;28;20038;-73
2021/05/15 08:21:41;;;;;;;1.90;1.08;;;15.40;98.90;;;;;;5036457;28;20025;-72
2021/05/15 08:24:09;;;;;;;2.70;0.80;;;15.50;98.30;;;;;;5036877;28;20033;-72
2021/05/15 08:26:39;;;;;;;2.90;0.88;;;15.60;98.40;;;;;;5036811;28;20032;-72
2021/05/15 08:29:11;;;;;;;2.53;1.63;;;15.60;98.60;;;;;;5037282;28;20029;-72
2021/05/15 08:31:40;;;;;;;2.05;1.17;;;15.60;97.90;;;;;;5037514;28;20475;-75
2021/05/15 08:34:08;;;;;;;2.20;1.50;;;15.50;98.40;;;;;;5037988;28;20382;-72
2021/05/15 08:36:36;;;;;;;2.75;1.40;;;15.50;97.60;;;;;;5023697;28;20441;-72
2021/05/15 08:39:06;;;;;;;2.13;0.80;;;15.50;97.50;;;;;;5041270;28;20049;-72
2021/05/15 08:41:34;;;;;;;1.42;1.02;;;15.60;97.50;;;;;;5041293;28;20013;-72
2021/05/15 08:44:06;;;;;;;1.83;0.80;;;15.80;97.30;;;;;;5040643;28;20021;-72
2021/05/15 08:46:34;;;;;;;1.50;0.90;;;16.00;96.90;;;;;;5022643;28;20474;-72
2021/05/15 08:49:05;;;;;;;4.03;1.08;;;16.10;96.60;;;;;;5040233;28;20467;-72
2021/05/15 08:51:33;;;;;;;1.00;0.77;;;16.30;96.40;;;;;;5040378;28;20064;-72
2021/05/15 08:54:01;;;;;;;2.15;0.82;;;16.60;95.00;;;;;;5040115;28;20029;-72
2021/05/15 08:56:30;;;;;;;1.92;0.88;;;16.80;94.20;;;;;;5040286;28;20018;-72
2021/05/15 08:58:58;;;;;;;2.47;1.20;;;17.10;93.30;;;;;;5040115;28;20029;-72
2021/05/15 09:01:26;;;;;;;1.63;0.73;;;17.40;92.10;;;;;;5041008;28;20394;-72
2021/05/15 09:03:53;;;;;;;2.28;0.70;;;17.50;91.90;;;;;;5040736;28;20072;-72
2021/05/15 09:06:21;;;;;;;2.03;0.80;;;17.80;91.50;;;;;;5023109;28;20026;-72
2021/05/15 09:08:49;;;;;;;1.20;0.70;;;17.90;90.90;;;;;;5041096;28;20043;-72
2021/05/15 09:11:16;;;;;;;2.72;0.73;;;17.90;89.50;;;;;;5040521;28;20021;-72
2021/05/15 09:13:52;;;;;;;1.15;0.73;;;18.00;90.20;;;;;;5040692;28;20320;-72
2021/05/15 09:16:20;;;;;;;3.70;0.82;;;18.10;90.10;;;;;;5040380;28;20360;-72
2021/05/15 09:18:48;;;;;;;2.38;0.80;;;18.10;87.10;;;;;;5039352;28;20444;-72
2021/05/15 09:21:18;;;;;;;1.80;0.60;;;18.20;85.10;;;;;;5039632;28;20152;-72
2021/05/15 09:23:49;;;;;;;1.40;0.90;;;18.20;84.80;;;;;;5039695;28;20025;-72
2021/05/15 09:26:23;;;;;;;1.38;0.80;;;18.30;84.10;;;;;;5021958;28;20025;-72
2021/05/15 09:28:58;;;;;;;1.20;0.63;;;18.30;83.90;;;;;;5039391;28;20021;-72
2021/05/15 09:31:27;;;;;;;1.70;0.90;;;18.40;82.80;;;;;;5039331;28;20024;-72
2021/05/15 09:33:57;;;;;;;1.52;0.90;;;18.60;83.00;;;;;;5039404;28;20030;-71
2021/05/15 09:36:34;;;;;;;1.65;0.90;;;18.60;80.50;;;;;;5039868;28;20028;-71
2021/05/15 09:39:08;;;;;;;1.50;0.70;;;18.60;79.70;;;;;;5040146;28;20326;-71
2021/05/15 09:41:59;;;;;;;1.88;0.60;;;18.30;81.00;;;;;;5022536;28;20108;-75
2021/05/15 09:44:29;;;;;;;1.13;0.50;;;18.00;81.90;;;;;;5040468;28;20024;-72
2021/05/15 09:46:58;;;;;;;2.38;0.70;;;17.70;85.00;;;;;;5039739;28;20026;-73
2021/05/15 09:49:31;;;;;;;0.98;0.63;;;17.50;82.60;;;;;;5022386;28;20159;-72
2021/05/15 09:52:05;;;;;;;0.95;0.40;;;17.30;84.80;;;;;;5022124;28;20153;-74
2021/05/15 09:54:35;;;;;;;0.47;0.20;;;17.00;82.20;;;;;;5021328;28;20060;-72
2021/05/15 09:57:07;;;;;;;0.40;0.40;;;16.40;83.40;;;;;;5038981;28;20029;-72
2021/05/15 09:59:37;;;;;;;1.05;0.40;;;15.70;85.50;;;;;;5038832;28;20418;-73
2021/05/15 10:02:06;;;;;;;1.00;0.32;;;14.90;90.10;;;;;;5038948;28;20434;-73
2021/05/15 10:04:35;;;;;;;1.00;0.40;;;14.30;92.20;;;;;;5038735;28;20021;-72
2021/05/15 10:07:03;;;;;;;1.55;0.40;;;13.60;94.10;;;;;;5021053;28;20439;-71
2021/05/15 10:09:36;;;;;;;2.95;0.70;;;12.90;96.90;;;;;;5039924;28;20057;-72
2021/05/15 10:12:06;;;;;;;1.60;0.40;;;12.30;99.90;;;;;;5039544;28;20026;-71
2021/05/15 10:14:34;;;;;;;1.95;0.50;;;11.80;99.90;;;;;;5039444;28;20021;-73
2021/05/15 10:17:02;;;;;;;0.95;0.65;;;11.30;99.90;;;;;;5039352;28;20045;-71
2021/05/15 10:19:32;;;;;;;0.95;0.30;;;11.00;99.90;;;;;;5039315;28;20349;-71
2021/05/15 10:22:01;;;;;;;2.25;0.40;;;10.70;99.90;;;;;;5039222;28;20059;-72
2021/05/15 10:24:29;;;;;;;1.55;0.63;;;10.60;99.90;;;;;;5038637;28;20053;-73
2021/05/15 10:27:11;;;;;;;1.88;0.40;;;10.50;99.90;;;;;;5038755;28;20021;-72
2021/05/15 10:29:40;;;;;;;2.60;0.50;;;10.40;99.90;;;;;;5038206;28;20385;-72
2021/05/15 10:32:25;;;;;;;4.03;0.65;;;10.30;99.90;;;;;;5020861;28;20029;-72
2021/05/15 10:35:00;;;;;;;2.42;0.40;;;10.40;99.90;;;;;;5020582;28;20056;-72
2021/05/15 10:37:45;;;;;;;1.50;0.60;;;10.40;99.90;;;;;;5038594;28;20436;-72
2021/05/15 10:40:21;;;;;;;1.05;0.45;;;10.60;99.90;;;;;;5038596;28;20061;-73
2021/05/15 10:43:03;;;;;;;3.57;0.50;;;10.90;99.90;;;;;;5039000;28;20049;-74
2021/05/15 10:45:42;;;;;;;7.68;2.72;;;11.30;99.90;;;;;;5021445;28;20268;-72
2021/05/15 10:48:25;;;;;;;1.27;0.52;;;11.80;99.90;;;;;;5038753;28;20021;-72
2021/05/15 10:51:01;;;;;;;0.57;0.30;;;12.30;99.90;;;;;;5038841;28;20030;-73
2021/05/15 10:53:31;;;;;;;0.68;0.40;;;12.70;99.90;;;;;;5039030;28;20029;-74
2021/05/15 10:56:19;;;;;;;0.85;0.35;;;12.90;99.90;;;;;;5038610;28;20473;-72
2021/05/15 10:58:48;;;;;;;1.58;0.25;;;13.20;99.90;;;;;;5019668;28;20029;-73
2021/05/15 11:01:21;;;;;;;0.98;0.40;;;13.30;99.90;;;;;;5037725;28;20032;-74
2021/05/15 11:03:49;;;;;;;2.58;0.38;;;13.40;99.90;;;;;;5038305;28;20025;-74
2021/05/15 11:06:22;;;;;;;0.20;0.20;;;13.60;99.90;;;;;;5020182;28;20026;-73
2021/05/15 11:09:01;;;;;;;1.00;0.35;;;13.80;99.90;;;;;;5037621;28;20436;-74
2021/05/15 11:11:45;;;;;;;1.35;0.50;;;14.00;99.90;;;;;;5019976;28;20026;-73
2021/05/15 11:14:33;;;;;;;2.63;0.30;;;14.20;99.90;;;;;;5038021;28;20021;-73
2021/05/15 11:17:21;;;;;;;1.83;0.50;;;14.50;99.90;;;;;;5020527;28;20018;-73
2021/05/15 11:20:04;;;;;;;1.05;0.30;;;14.80;99.90;;;;;;5017202;28;20041;-73
2021/05/15 11:22:35;;;;;;;1.98;0.60;;;15.30;99.90;;;;;;5018805;28;20026;-73
2021/05/15 11:25:06;;;;;;;0.90;0.50;;;15.70;99.90;;;;;;5018630;28;20319;-74
2021/05/15 11:27:34;;;;;;;0.80;0.30;;;15.90;99.90;;;;;;5018343;28;20070;-74
2021/05/15 11:30:08;;;;;;;0.60;0.40;;;16.10;99.90;;;;;;5018012;28;20052;-74
2021/05/15 11:32:36;;;;;;;0.77;0.40;;;16.30;99.90;;;;;;5017436;28;20029;-73
2021/05/15 11:35:06;;;;;;;0.85;0.40;;;16.40;99.90;;;;;;5016382;28;20026;-73
2021/05/15 11:37:34;;;;;;;1.45;0.52;;;16.40;99.90;;;;;;5017599;28;20026;-74
2021/05/15 11:40:02;;;;;;;2.47;0.73;;;16.20;99.90;;;;;;5017254;28;20350;-78
2021/05/15 11:42:31;;;;;;;1.00;0.50;;;15.90;99.90;;;;;;5016660;28;20029;-74
2021/05/15 11:44:58;;;;;;;2.08;0.60;;;15.40;99.00;;;;;;5016313;28;20022;-74
2021/05/15 11:47:27;;;;;;;1.45;0.55;;;14.60;99.90;;;;;;5018059;28;20334;-74
2021/05/15 11:49:59;;;;;;;1.50;0.70;;;13.80;99.90;;;;;;5018009;28;20030;-74
2021/05/15 11:52:33;;;;;;;4.35;0.82;;;13.10;99.90;;;;;;5018036;28;20088;-74
2021/05/15 11:55:02;;;;;;;1.98;0.90;;;12.60;99.90;;;;;;5016906;28;20029;-75
2021/05/15 11:57:31;;;;;;;2.22;0.60;;;12.10;99.90;;;;;;5017879;28;20041;-77
2021/05/15 12:00:16;;;;;;;1.75;0.63;;;11.70;99.90;;;;;;5016896;28;20056;-81
2021/05/15 12:02:48;;;;;;;2.72;0.70;;;11.30;99.90;;;;;;5017022;28;20018;-75
2021/05/15 12:05:17;;;;;;;3.67;0.55;;;10.90;99.90;;;;;;5016907;28;20080;-75
2021/05/15 12:07:52;;;;;;;1.50;1.00;;;10.70;99.90;;;;;;5017282;28;20030;-75
2021/05/15 12:10:25;;;;;;;1.17;0.60;;;10.60;99.90;;;;;;5017080;28;20034;-75
2021/05/15 12:13:00;;;;;;;0.80;0.50;;;10.60;99.90;;;;;;5016721;28;20057;-75
2021/05/15 12:15:32;;;;;;;1.95;0.90;;;10.70;99.90;;;;;;5017084;28;20030;-76
2021/05/15 12:18:02;;;;;;;0.98;0.50;;;10.90;99.90;;;;;;5018855;28;20197;-76
2021/05/15 12:20:44;;;;;;;2.38;0.88;;;11.30;99.90;;;;;;5037269;28;20029;-75
2021/05/15 12:23:23;;;;;;;3.85;0.70;;;11.70;99.90;;;;;;5037296;28;20021;-75
2021/05/15 12:26:09;;;;;;;2.50;0.55;;;12.30;99.90;;;;;;5037321;28;20025;-75
2021/05/15 12:28:48;;;;;;;1.13;0.60;;;12.70;99.90;;;;;;5037330;28;20029;-75
2021/05/15 12:31:29;;;;;;;2.55;0.50;;;13.20;99.90;;;;;;5037274;28;20025;-75
2021/05/15 12:33:58;;;;;;;1.38;0.70;;;13.60;99.90;;;;;;5037189;28;20440;-75
2021/05/15 12:36:37;;;;;;;1.27;0.60;;;14.10;99.90;;;;;;5036451;28;20028;-75
2021/05/15 12:39:13;;;;;;;2.38;0.80;;;14.50;99.90;;;;;;5036240;28;20418;-76
2021/05/15 12:41:42;;;;;;;1.25;0.70;;;15.00;99.90;;;;;;5036756;28;20438;-75
2021/05/15 12:44:17;;;;;;;1.05;0.40;;;15.60;99.90;;;;;;5036483;28;20025;-75
2021/05/15 12:46:51;;;;;;;0.93;0.55;;;16.30;99.90;;;;;;5036517;28;20124;-74
2021/05/15 12:49:22;;;;;;;0.70;0.40;;;16.70;99.90;;;;;;5018559;28;20030;-74
2021/05/15 12:51:52;;;;;;;0.90;0.55;;;17.00;99.90;;;;;;5036383;28;20071;-76
2021/05/15 12:54:28;;;;;;;1.20;0.50;;;17.20;99.90;;;;;;5036570;28;20044;-75
2021/05/15 12:57:04;;;;;;;2.72;0.38;;;17.30;99.90;;;;;;5037008;28;20075;-76
2021/05/15 12:59:41;;;;;;;0.85;0.40;;;17.70;99.90;;;;;;5037033;28;20367;-76